Página principal
METAR-TAF:

METAR-TAF

Aeroportos :

Aeroporto Internacional de Xi'an Xianyang

Xian, China

latitude: 34-26N, longitude: 108-45E, altura: 479 m

Observação actual do tempo

O boletim foi feito há 42 minutos, às 10:00 UTC
Vento 8 kt de nordeste
Temperatura 36°C
Humidade 47%
Pressão 1000 hPa
Visibilidade 10 km ou mais
sem nuvens abaixo de 1500 metros e sem cumulonimbus

METAR: ZLXY 201000Z 04004MPS CAVOK 36/23 Q1000 NOSIG

Hora: 18:42 (10:42 UTC)

Previsão

O boletim foi feito há 7 horas e 39 minutos, às 03:03 UTC
Previsão válida de 20 às 06 UTC a 21 às 06 UTC
Vento 8 kt de es-nordeste
Visibilidade: 6000 m

TAF: ZLXY 200303Z 2006/2106 07004MPS 6000 NSC TX39/2008Z TN26/2021Z

Observações e previsões do tempo de mais de 4000 aeroportos (mensagens METAR e TAF).

As estações disponíveis são os pontos amarelos e vermelhos sobre o mapa.

Mova o rato sobre o mapa para ver o nome da estação.

Depois clique no ponto para visualizar as observações e previsões meteorológicas.

Para alterar o mapa : clique nos botões verdes com uma cruz preta para aumentar o zoom; no botão verde com uma pitada de zoom; ou nas setas verdes para mapas adjacentes.


METAR-TAF: